• Join FlightAware (Why Join?)
  • Login
  • US Flag 
09:08AM EDT


 

Airport Tracker/Info


-or-


 

Live Flight TrackerFlight Track Log ✈ N762NC ✈ 15-Oct-2013 ✈ KDTW - KORD

Flight Track Log - Related Links

Times and Time Zones

All times are in EDT time to prevent confusion due to time zone crossing. See the N762NC flight status page for this flight to view local times or setup timezone preferences in your user account.

Time Position Orientation Groundspeed Altitude Reporting Facility
EDT Latitude Longitude Course Direction KTS MPH feet Rate Location/Type
01:04PM 42.2081 -83.3675 270° West 150 173 1,500  Level Cleveland Center
01:05PM 42.1778 -83.4081 225° Southwest 214 246 2,900 2,100 Climbing Cleveland Center
01:06PM 42.1422 -83.4594 227° Southwest 225 259 5,200 1,980 Climbing Cleveland Center
01:06PM 42.1397 -83.4625 222° Southwest 209 241 5,200 2,220 Level Cleveland Center
01:07PM 42.1603 -83.5494 288° West 283 326 7,500 2,280 Climbing Cleveland Center
01:07PM 42.1631 -83.5519 326° Northwest 263 303 7,600 1,500 Climbing Cleveland Center
01:08PM 42.2083 -83.6381 305° West 277 319 9,500 1,500 Climbing Cleveland Center
01:09PM 42.1887 -84.0553 270° West  Level Estimated
01:09PM 42.2719 -83.7586 306° West 329 379 10,800  Level Cleveland Center
01:10PM 42.3303 -83.8706 305° West 359 413 13,200 2,220 Climbing Cleveland Center
01:11PM 42.3978 -83.9808 310° West 377 434 15,500 2,160 Climbing Cleveland Center
01:12PM 42.4239 -84.1172 285° West 375 432 17,700 1,980 Climbing Cleveland Center
01:13PM 42.4306 -84.2608 274° West 383 441 19,600 1,620 Climbing Cleveland Center
01:14PM 42.4456 -84.4081 278° West 393 452 21,100 1,620 Climbing Cleveland Center
01:15PM 42.4450 -84.5872 270° West 401 461 23,000 1,920 Climbing Cleveland Center
01:16PM 42.4294 -84.7244 261° West 407 468 25,100 1,440 Climbing Cleveland Center
01:17PM 42.4242 -84.8650 267° West 378 435 26,000 420 Climbing Cleveland Center
01:18PM 42.4367 -84.9922 278° West 348 400 26,000  Level Cleveland Center
01:19PM 42.4522 -85.1489 278° West 351 404 26,000 -60 Level Cleveland Center
01:20PM 42.4828 -85.2750 288° West 359 413 25,900  Descending Cleveland Center
01:21PM 42.5336 -85.3928 300° West 366 421 26,000  Climbing Cleveland Center
01:22PM 42.5983 -85.5006 309° West 369 425 26,000  Level Cleveland Center
01:23PM 42.6600 -85.6089 308° West 364 419 26,000  Level Cleveland Center
01:24PM 42.7261 -85.7111 311° West 361 415 26,000  Level Cleveland Center
01:25PM 42.8014 -85.8364 309° West 358 412 26,000 -540 Level Cleveland Center
01:26PM 42.8161 -85.9478 280° West 331 381 24,900 -1,260 Descending Cleveland Center
01:28PM 42.7492 -86.0228 219° Southwest 312 359 23,400 -1,440 Descending Cleveland Center
01:29PM 42.7044 -86.1219 238° Southwest 311 358 22,000 -1,380 Descending Cleveland Center
01:30PM 42.6717 -86.2267 247° West 305 351 20,600 -1,680 Descending Cleveland Center
01:31PM 42.6406 -86.3750 254° West 289 333 18,000 -1,860 Descending Chicago Center
01:32PM 42.6192 -86.4797 255° West 286 329 16,100 -2,100 Descending Chicago Center
01:33PM 42.5939 -86.6006 254° West 278 320 13,700 -1,860 Descending Chicago Center
01:34PM 42.5692 -86.6972 251° West 272 313 12,300 -1,500 Descending Chicago Center
01:35PM 42.5439 -86.7903 250° West 266 306 10,700 -1,140 Descending Chicago Center
01:36PM 42.5125 -86.8764 244° Southwest 257 296 10,000 -360 Descending Chicago Center
01:37PM 42.4886 -86.9667 250° West 255 293 10,000  Level Chicago Center
01:38PM 42.4639 -87.0556 249° West 252 290 10,000 -660 Level Chicago Center
01:39PM 42.4378 -87.1650 252° West 253 291 8,700 -1,260 Descending Chicago Center
01:40PM 42.4175 -87.2533 253° West 248 285 7,400 -780 Descending Chicago Center
01:41PM 42.3961 -87.3453 253° West 254 292 7,100 -240 Descending Chicago Center
01:42PM 42.3764 -87.4336 253° West 254 292 7,000  Descending Chicago Center
01:43PM 42.3514 -87.5078 246° West 218 251 7,100  Climbing Chicago Center
01:44PM 42.3058 -87.5569 219° Southwest 185 213 7,100  Level Chicago Center
01:46PM 42.2722 -87.5922 218° Southwest 158 182 7,100 -60 Level Chicago Center
01:47PM 42.2414 -87.6289 221° Southwest 150 173 7,000 -480 Descending Chicago Center
01:48PM 42.2075 -87.6642 218° Southwest 153 176 6,200 -900 Descending Chicago Center
01:49PM 42.1692 -87.7078 220° Southwest 150 173 5,200 -900 Descending Chicago Center
01:50PM 42.1381 -87.7394 217° Southwest 142 163 4,400 -900 Descending Chicago Center
01:50PM 42.1167 -87.7667 223° Southwest 140 161 3,800 -840 Descending Chicago TRACON
01:51PM 42.0833 -87.8000 217° Southwest 136 157 3,000 -780 Descending Chicago TRACON
01:52PM 42.0667 -87.8167 217° Southwest 143 165 2,300 -840 Descending Chicago TRACON
01:53PM 42.0333 -87.8500 217° Southwest 123 142 1,500 -720 Descending Chicago TRACON
01:54PM 42.0000 -87.8833 217° Southwest 124 143 900 -600 Descending Chicago TRACON